createdAt,value
2019-05-14T00:02:26.669Z,46.39
2019-05-14T00:04:56.929Z,46.39
2019-05-14T00:07:29.054Z,46.28
2019-05-14T00:10:01.185Z,46.29
2019-05-14T00:12:31.708Z,46.35
2019-05-14T00:15:03.366Z,46.32
2019-05-14T00:17:33.668Z,46.32
2019-05-14T00:20:09.257Z,46.33
2019-05-14T00:22:36.567Z,46.35
2019-05-14T00:25:06.967Z,46.38
2019-05-14T00:27:37.226Z,46.39
2019-05-14T00:30:08.297Z,46.40
2019-05-14T00:32:41.369Z,46.55
2019-05-14T00:35:12.059Z,46.60
2019-05-14T00:37:42.361Z,46.60
2019-05-14T00:40:12.753Z,46.45
2019-05-14T00:42:43.513Z,46.45
2019-05-14T00:45:14.029Z,46.47
2019-05-14T00:47:44.393Z,46.48
2019-05-14T00:50:16.464Z,46.50
2019-05-14T00:52:46.760Z,46.52
2019-05-14T00:55:22.333Z,46.53
2019-05-14T00:57:52.896Z,46.56
2019-05-14T01:00:23.164Z,46.60
2019-05-14T01:02:53.488Z,46.61
2019-05-14T01:05:25.280Z,46.62
2019-05-14T01:07:55.903Z,46.62
2019-05-14T01:10:26.206Z,46.65
2019-05-14T01:12:56.602Z,46.66
2019-05-14T01:15:28.016Z,46.70
2019-05-14T01:17:58.328Z,46.70
2019-05-14T01:20:28.640Z,46.72
2019-05-14T01:22:58.966Z,46.75
2019-05-14T01:25:31.566Z,46.78
2019-05-14T01:28:02.052Z,46.81
2019-05-14T01:30:32.589Z,46.84
2019-05-14T01:33:03.186Z,46.84
2019-05-14T01:35:35.234Z,46.87
2019-05-14T01:38:05.543Z,46.89
2019-05-14T01:40:35.830Z,46.94
2019-05-14T01:43:06.194Z,46.95
2019-05-14T01:45:36.481Z,46.96
2019-05-14T01:48:06.805Z,46.97
2019-05-14T01:50:37.360Z,46.98
2019-05-14T01:53:07.662Z,47.04
2019-05-14T01:55:37.985Z,47.08
2019-05-14T01:58:08.288Z,47.08
2019-05-14T02:00:38.890Z,47.11
2019-05-14T02:03:09.169Z,47.17
2019-05-14T02:05:41.478Z,47.21
2019-05-14T02:08:12.181Z,47.22
2019-05-14T02:10:46.842Z,47.27
2019-05-14T02:13:21.449Z,47.30
2019-05-14T02:15:52.240Z,47.32
2019-05-14T02:18:23.030Z,47.33
2019-05-14T02:20:53.380Z,47.34
2019-05-14T02:23:23.641Z,47.38
2019-05-14T02:25:54.331Z,47.43
2019-05-14T02:28:27.781Z,47.48
2019-05-14T02:31:03.088Z,47.51
2019-05-14T02:33:30.757Z,47.58
2019-05-14T02:36:01.716Z,47.59
2019-05-14T02:38:32.930Z,47.59
2019-05-14T02:41:03.853Z,47.61
2019-05-14T02:43:34.809Z,47.62
2019-05-14T02:46:13.117Z,47.65
2019-05-14T02:48:40.493Z,47.69
2019-05-14T02:51:10.840Z,47.69
2019-05-14T02:53:41.579Z,47.72
2019-05-14T02:56:11.876Z,47.81
2019-05-14T02:58:43.669Z,47.84
2019-05-14T03:01:14.450Z,47.90
2019-05-14T03:03:44.929Z,47.94
2019-05-14T03:06:15.226Z,48.00
2019-05-14T03:08:45.644Z,48.04
2019-05-14T03:11:20.031Z,48.10
2019-05-14T03:13:49.843Z,48.17
2019-05-14T03:16:30.051Z,48.21
2019-05-14T03:18:52.585Z,48.27
2019-05-14T03:21:23.944Z,48.31
2019-05-14T03:23:54.252Z,48.39
2019-05-14T03:26:24.894Z,48.46
2019-05-14T03:28:55.515Z,48.50
2019-05-14T03:31:33.181Z,48.51
2019-05-14T03:34:03.321Z,48.51
2019-05-14T03:36:35.064Z,48.62
2019-05-14T03:39:10.218Z,48.68
2019-05-14T03:41:39.874Z,48.75
2019-05-14T03:44:10.840Z,48.87
2019-05-14T03:46:51.307Z,48.96
2019-05-14T03:49:19.805Z,49.06
2019-05-14T03:51:49.997Z,49.13
2019-05-14T03:54:20.545Z,49.18
2019-05-14T03:56:51.694Z,49.33
2019-05-14T03:59:22.507Z,49.41
2019-05-14T04:01:53.414Z,49.48
2019-05-14T04:04:24.388Z,49.58
2019-05-14T04:06:59.955Z,49.66
2019-05-14T04:09:31.622Z,49.75
2019-05-14T04:12:04.432Z,49.81
2019-05-14T04:14:39.647Z,49.87
2019-05-14T04:17:15.816Z,49.94
2019-05-14T04:19:49.307Z,50.00
2019-05-14T04:22:20.468Z,50.07
2019-05-14T04:24:52.255Z,50.14
2019-05-14T04:27:23.192Z,50.21
2019-05-14T04:29:54.920Z,50.28
2019-05-14T04:32:29.135Z,50.33
2019-05-14T04:35:00.689Z,50.40
2019-05-14T04:37:32.862Z,50.45
2019-05-14T04:40:03.769Z,50.49
2019-05-14T04:42:34.085Z,50.56
2019-05-14T04:45:05.949Z,50.67
2019-05-14T04:47:42.041Z,50.75
2019-05-14T04:50:10.941Z,50.80
2019-05-14T04:52:41.315Z,50.88
2019-05-14T04:55:13.007Z,50.99
2019-05-14T04:57:44.920Z,51.08
2019-05-14T05:00:15.286Z,51.16
2019-05-14T05:02:49.467Z,51.25
2019-05-14T05:05:19.612Z,51.37
2019-05-14T05:07:50.138Z,51.45
2019-05-14T05:10:20.920Z,51.52
2019-05-14T05:12:52.683Z,51.54
2019-05-14T05:15:23.950Z,51.60
2019-05-14T05:17:54.244Z,51.69
2019-05-14T05:20:24.542Z,51.76
2019-05-14T05:22:55.132Z,51.82
2019-05-14T05:25:25.552Z,51.90
2019-05-14T05:27:59.817Z,52.02
2019-05-14T05:30:30.406Z,52.12
2019-05-14T05:33:01.784Z,52.23
2019-05-14T05:35:32.160Z,52.33
2019-05-14T05:38:03.298Z,52.44
2019-05-14T05:40:33.885Z,52.51
2019-05-14T05:43:04.173Z,52.61
2019-05-14T05:45:34.543Z,52.71
2019-05-14T05:48:08.066Z,52.81
2019-05-14T05:50:39.194Z,52.91
2019-05-14T05:53:09.584Z,53.16
2019-05-14T05:55:41.176Z,53.45
2019-05-14T05:58:11.512Z,53.75
2019-05-14T06:00:44.613Z,53.95
2019-05-14T06:03:20.967Z,54.15
2019-05-14T06:05:49.851Z,54.35
2019-05-14T06:08:20.189Z,54.55
2019-05-14T06:10:50.287Z,54.61
2019-05-14T06:13:20.800Z,54.75
2019-05-14T06:15:52.497Z,54.87
2019-05-14T06:18:22.833Z,54.96
2019-05-14T06:20:53.250Z,55.05
2019-05-14T06:23:23.615Z,55.13
2019-05-14T06:25:55.258Z,55.21
2019-05-14T06:28:30.184Z,55.28
2019-05-14T06:30:58.913Z,55.35
2019-05-14T06:33:29.436Z,55.33
2019-05-14T06:36:02.682Z,55.43
2019-05-14T06:38:32.943Z,55.39
2019-05-14T06:41:03.246Z,55.44
2019-05-14T06:43:33.905Z,55.47
2019-05-14T06:46:04.691Z,55.50
2019-05-14T06:48:35.038Z,55.56
2019-05-14T06:51:05.676Z,55.59
2019-05-14T06:53:35.959Z,55.57
2019-05-14T06:56:08.156Z,55.53
2019-05-14T06:58:39.438Z,55.52
2019-05-14T07:01:10.066Z,55.52
2019-05-14T07:03:40.524Z,55.54
2019-05-14T07:06:10.867Z,55.60
2019-05-14T07:08:41.246Z,55.65
2019-05-14T07:11:14.374Z,55.58
2019-05-14T07:13:49.114Z,55.52
2019-05-14T07:16:21.199Z,55.46
2019-05-14T07:18:54.494Z,55.44
2019-05-14T07:21:24.833Z,55.44
2019-05-14T07:23:59.124Z,55.36
2019-05-14T07:26:29.526Z,55.35
2019-05-14T07:28:59.529Z,55.25
2019-05-14T07:31:30.571Z,55.26
2019-05-14T07:34:00.968Z,55.20
2019-05-14T07:36:31.454Z,55.07
2019-05-14T07:39:02.607Z,55.09
2019-05-14T07:41:39.180Z,54.95
2019-05-14T07:44:10.749Z,55.07
2019-05-14T07:46:43.169Z,55.02
2019-05-14T07:49:18.484Z,54.91
2019-05-14T07:51:50.867Z,54.82
2019-05-14T07:54:22.439Z,54.74
2019-05-14T07:56:53.266Z,54.70
2019-05-14T07:59:23.661Z,54.51
2019-05-14T08:02:00.065Z,54.43
2019-05-14T08:04:32.866Z,54.28
2019-05-14T08:07:03.597Z,54.08
2019-05-14T08:09:38.706Z,53.98
2019-05-14T08:12:12.632Z,53.92
2019-05-14T08:14:56.006Z,53.78
2019-05-14T08:17:13.976Z,53.64
2019-05-14T08:19:49.136Z,53.56
2019-05-14T08:22:20.252Z,53.53
2019-05-14T08:24:51.266Z,53.47
2019-05-14T08:27:30.911Z,53.46
2019-05-14T08:29:59.743Z,53.39
2019-05-14T08:32:30.368Z,53.35
2019-05-14T08:35:02.801Z,53.37
2019-05-14T08:37:33.131Z,53.24
2019-05-14T08:40:03.493Z,53.17
2019-05-14T08:42:35.877Z,53.11
2019-05-14T08:45:12.312Z,53.05
2019-05-14T08:47:41.032Z,52.87
2019-05-14T08:50:12.635Z,52.91
2019-05-14T08:52:43.020Z,52.66
2019-05-14T08:55:14.261Z,52.62
2019-05-14T08:57:48.962Z,52.48
2019-05-14T09:00:20.919Z,52.29
2019-05-14T09:02:51.313Z,52.29
2019-05-14T09:05:23.373Z,52.06
2019-05-14T09:07:58.142Z,52.04
2019-05-14T09:10:31.533Z,51.89
2019-05-14T09:13:02.765Z,51.73
2019-05-14T09:15:33.400Z,51.75
2019-05-14T09:18:04.244Z,51.75
2019-05-14T09:20:34.531Z,51.21
2019-05-14T09:23:08.969Z,51.09
2019-05-14T09:25:47.762Z,51.12
2019-05-14T09:28:13.861Z,50.89
2019-05-14T09:30:45.842Z,50.75
2019-05-14T09:33:18.759Z,50.52
2019-05-14T09:35:49.502Z,50.51
2019-05-14T09:38:20.487Z,50.30
2019-05-14T09:41:07.149Z,50.17
2019-05-14T09:43:28.590Z,49.98
2019-05-14T09:45:59.754Z,49.83
2019-05-14T09:48:37.858Z,49.71
2019-05-14T09:51:09.266Z,49.60
2019-05-14T09:53:40.672Z,49.42
2019-05-14T09:56:11.487Z,49.18
2019-05-14T09:58:42.874Z,48.96
2019-05-14T10:01:14.499Z,48.92
2019-05-14T10:03:46.370Z,48.63
2019-05-14T10:06:20.705Z,48.47
2019-05-14T10:08:51.007Z,48.33
2019-05-14T10:11:21.890Z,48.35
2019-05-14T10:13:52.218Z,48.17
2019-05-14T10:16:25.918Z,48.04
2019-05-14T10:18:56.627Z,47.86
2019-05-14T10:21:29.244Z,47.69
2019-05-14T10:24:00.046Z,47.56
2019-05-14T10:26:30.373Z,47.37
2019-05-14T10:29:00.755Z,47.24
2019-05-14T10:31:31.149Z,47.11
2019-05-14T10:34:04.271Z,46.89
2019-05-14T10:36:41.407Z,46.72
2019-05-14T10:39:13.413Z,46.65
2019-05-14T10:41:43.735Z,46.50
2019-05-14T10:44:14.138Z,46.32
2019-05-14T10:46:46.058Z,46.12
2019-05-14T10:49:23.525Z,46.01
2019-05-14T10:51:50.834Z,45.84
2019-05-14T10:54:25.668Z,45.53
2019-05-14T10:56:59.360Z,45.59
2019-05-14T10:59:29.892Z,45.44
2019-05-14T11:02:02.636Z,45.05
2019-05-14T11:04:34.542Z,45.00
2019-05-14T11:07:07.085Z,44.88
2019-05-14T11:09:38.039Z,44.66
2019-05-14T11:12:11.018Z,44.46
2019-05-14T11:14:41.283Z,44.43
2019-05-14T11:17:12.121Z,44.23
2019-05-14T11:19:42.980Z,44.06
2019-05-14T11:22:13.324Z,43.92
2019-05-14T11:24:45.335Z,43.79
2019-05-14T11:27:15.704Z,43.46
2019-05-14T11:29:48.887Z,43.33
2019-05-14T11:32:20.939Z,43.31
2019-05-14T11:34:52.452Z,43.17
2019-05-14T11:37:24.575Z,43.04
2019-05-14T11:39:58.127Z,42.75
2019-05-14T11:42:31.597Z,42.68
2019-05-14T11:45:03.758Z,42.57
2019-05-14T11:47:38.012Z,42.35
2019-05-14T11:50:10.065Z,42.28
2019-05-14T11:52:42.326Z,42.10
2019-05-14T11:55:12.859Z,41.90
2019-05-14T11:57:43.264Z,41.71
2019-05-14T12:00:14.611Z,41.64
2019-05-14T12:02:45.090Z,41.41
2019-05-14T12:05:18.762Z,41.33
2019-05-14T12:07:48.140Z,41.17
2019-05-14T12:10:20.649Z,41.01
2019-05-14T12:12:54.783Z,40.81
2019-05-14T12:15:25.931Z,40.79
2019-05-14T12:17:59.249Z,40.58
2019-05-14T12:20:29.668Z,40.53
2019-05-14T12:23:03.319Z,40.36
2019-05-14T12:25:33.937Z,40.23
2019-05-14T12:28:05.402Z,40.12
2019-05-14T12:30:39.257Z,39.96
2019-05-14T12:33:09.723Z,39.78
2019-05-14T12:35:45.557Z,39.81
2019-05-14T12:38:18.540Z,39.58
2019-05-14T12:40:49.760Z,39.37
2019-05-14T12:43:23.890Z,39.31
2019-05-14T12:45:54.260Z,39.30
2019-05-14T12:48:29.516Z,39.07
2019-05-14T12:51:09.025Z,38.82
2019-05-14T12:53:40.894Z,38.65
2019-05-14T12:56:14.173Z,38.50
2019-05-14T12:58:49.582Z,38.46
2019-05-14T13:01:20.319Z,38.30
2019-05-14T13:03:54.966Z,38.27
2019-05-14T13:06:25.454Z,38.07
2019-05-14T13:08:59.105Z,38.12
2019-05-14T13:11:30.328Z,37.85
2019-05-14T13:14:00.745Z,37.80
2019-05-14T13:16:33.883Z,37.70
2019-05-14T13:19:04.313Z,37.71
2019-05-14T13:21:35.075Z,37.60
2019-05-14T13:24:18.148Z,37.51
2019-05-14T13:26:50.848Z,37.51
2019-05-14T13:29:21.289Z,37.10
2019-05-14T13:31:52.155Z,37.10
2019-05-14T13:34:22.560Z,37.07
2019-05-14T13:36:54.832Z,37.00
2019-05-14T13:39:28.284Z,36.87
2019-05-14T13:42:01.223Z,36.80
2019-05-14T13:44:31.544Z,36.77
2019-05-14T13:47:02.864Z,36.64
2019-05-14T13:49:34.380Z,36.56
2019-05-14T13:52:32.074Z,36.43
2019-05-14T13:55:02.504Z,36.33
2019-05-14T13:57:32.866Z,36.21
2019-05-14T14:00:11.655Z,36.09
2019-05-14T14:02:40.219Z,35.88
2019-05-14T14:05:10.721Z,35.62
2019-05-14T14:07:44.537Z,35.49
2019-05-14T14:10:13.905Z,35.43
2019-05-14T14:12:59.758Z,35.32
2019-05-14T14:15:32.164Z,35.23
2019-05-14T14:18:02.522Z,35.17
2019-05-14T14:20:34.911Z,35.08
2019-05-14T14:23:18.832Z,34.97
2019-05-14T14:25:42.366Z,34.96
2019-05-14T14:28:12.770Z,34.92
2019-05-14T14:30:43.098Z,34.87
2019-05-14T14:33:13.527Z,34.89
2019-05-14T14:35:43.931Z,34.89
2019-05-14T14:38:19.930Z,34.82
2019-05-14T14:40:51.852Z,34.75
2019-05-14T14:43:26.273Z,34.72
2019-05-14T14:45:59.558Z,34.62
2019-05-14T14:48:30.755Z,34.58
2019-05-14T14:51:03.209Z,34.55
2019-05-14T14:53:51.347Z,34.49
2019-05-14T14:56:11.191Z,34.46
2019-05-14T14:58:41.921Z,34.35
2019-05-14T15:01:23.706Z,34.27
2019-05-14T15:03:55.540Z,34.24
2019-05-14T15:06:41.565Z,34.18
2019-05-14T15:09:13.289Z,34.14
2019-05-14T15:11:54.281Z,34.08
2019-05-14T15:14:25.487Z,34.03
2019-05-14T15:16:56.513Z,34.00
2019-05-14T15:19:29.535Z,33.97
2019-05-14T15:21:59.273Z,33.92
2019-05-14T15:24:40.120Z,33.87
2019-05-14T15:27:15.039Z,33.77
2019-05-14T15:29:43.283Z,33.68
2019-05-14T15:32:13.982Z,33.58
2019-05-14T15:34:44.510Z,33.53
2019-05-14T15:37:15.053Z,33.46
2019-05-14T15:39:45.444Z,33.42
2019-05-14T15:42:19.030Z,33.42
2019-05-14T15:44:56.067Z,33.38
2019-05-14T15:47:29.717Z,33.38
2019-05-14T15:50:00.247Z,33.31
2019-05-14T15:52:30.599Z,33.24
2019-05-14T15:55:01.084Z,33.25
2019-05-14T15:57:32.190Z,33.19
2019-05-14T16:00:02.785Z,33.10
2019-05-14T16:02:33.629Z,33.02
2019-05-14T16:05:04.236Z,32.94
2019-05-14T16:07:34.598Z,32.88
2019-05-14T16:10:08.655Z,32.83
2019-05-14T16:12:40.088Z,32.78
2019-05-14T16:15:11.552Z,32.74
2019-05-14T16:17:49.924Z,32.68
2019-05-14T16:20:18.825Z,32.63
2019-05-14T16:22:48.575Z,32.60
2019-05-14T16:25:19.132Z,32.59
2019-05-14T16:27:49.434Z,32.57
2019-05-14T16:30:19.823Z,32.54
2019-05-14T16:32:54.248Z,32.52
2019-05-14T16:35:24.679Z,32.48
2019-05-14T16:37:55.080Z,32.43
2019-05-14T16:40:28.622Z,32.39
2019-05-14T16:42:59.979Z,32.34
2019-05-14T16:45:32.021Z,32.30
2019-05-14T16:48:05.302Z,32.28
2019-05-14T16:50:36.386Z,32.25
2019-05-14T16:53:11.322Z,32.23
2019-05-14T16:55:38.744Z,32.20
2019-05-14T16:58:09.150Z,32.18
2019-05-14T17:00:50.070Z,32.15
2019-05-14T17:03:20.616Z,32.14
2019-05-14T17:05:52.346Z,32.13
2019-05-14T17:08:22.479Z,32.10
2019-05-14T17:10:53.227Z,32.08
2019-05-14T17:13:24.915Z,32.08
2019-05-14T17:15:55.215Z,32.07
2019-05-14T17:18:28.543Z,32.06
2019-05-14T17:20:59.425Z,32.07
2019-05-14T17:23:30.329Z,32.05
2019-05-14T17:26:00.705Z,32.03
2019-05-14T17:28:31.302Z,32.03
2019-05-14T17:31:01.612Z,32.00
2019-05-14T17:33:33.322Z,31.99
2019-05-14T17:36:03.786Z,31.99
2019-05-14T17:38:39.449Z,31.97
2019-05-14T17:41:09.786Z,31.98
2019-05-14T17:43:42.602Z,31.98
2019-05-14T17:46:14.795Z,31.97
2019-05-14T17:48:45.298Z,31.98
2019-05-14T17:51:17.925Z,31.99
2019-05-14T17:53:48.378Z,31.99
2019-05-14T17:56:21.165Z,31.97
2019-05-14T17:58:52.945Z,31.99
2019-05-14T18:01:23.293Z,31.98
2019-05-14T18:03:53.551Z,31.95
2019-05-14T18:06:24.606Z,31.96
2019-05-14T18:08:54.924Z,31.94
2019-05-14T18:11:35.345Z,31.95
2019-05-14T18:14:11.633Z,31.93
2019-05-14T18:16:40.568Z,31.92
2019-05-14T18:19:11.317Z,31.91
2019-05-14T18:21:41.743Z,31.91
2019-05-14T18:24:18.771Z,31.90
2019-05-14T18:26:51.347Z,31.92
2019-05-14T18:29:21.826Z,31.91
2019-05-14T18:31:54.589Z,31.89
2019-05-14T18:34:25.117Z,31.89
2019-05-14T18:36:55.620Z,31.89
2019-05-14T18:39:28.352Z,31.89
2019-05-14T18:42:00.491Z,31.89
2019-05-14T18:44:34.214Z,31.89
2019-05-14T18:47:05.124Z,31.92
2019-05-14T18:49:35.580Z,31.90
2019-05-14T18:52:08.742Z,31.90
2019-05-14T18:54:39.355Z,31.87
2019-05-14T18:57:13.675Z,31.84
2019-05-14T18:59:45.556Z,31.86
2019-05-14T19:02:18.430Z,31.84
2019-05-14T19:04:51.901Z,31.82
2019-05-14T19:07:22.174Z,31.80
2019-05-14T19:09:52.467Z,31.81
2019-05-14T19:12:22.903Z,31.82
2019-05-14T19:14:53.660Z,31.82
2019-05-14T19:17:23.936Z,31.81
2019-05-14T19:19:56.094Z,31.80
2019-05-14T19:22:28.613Z,31.79
2019-05-14T19:24:58.826Z,31.76
2019-05-14T19:27:29.239Z,31.78
2019-05-14T19:30:02.956Z,31.80
2019-05-14T19:32:32.221Z,31.82
2019-05-14T19:35:02.654Z,31.81
2019-05-14T19:37:32.941Z,31.79
2019-05-14T19:40:03.245Z,31.80
2019-05-14T19:42:34.875Z,31.77
2019-05-14T19:45:08.515Z,31.77
2019-05-14T19:47:41.079Z,31.76
2019-05-14T19:50:11.869Z,31.75
2019-05-14T19:52:42.193Z,31.72
2019-05-14T19:55:12.685Z,31.71
2019-05-14T19:57:43.102Z,31.76
2019-05-14T20:00:14.164Z,31.74
2019-05-14T20:02:45.276Z,31.72
2019-05-14T20:05:15.670Z,31.71
2019-05-14T20:07:45.970Z,31.69
2019-05-14T20:10:16.781Z,31.67
2019-05-14T20:12:49.354Z,31.68
2019-05-14T20:15:20.178Z,31.68
2019-05-14T20:17:52.171Z,31.71
2019-05-14T20:20:22.783Z,31.70
2019-05-14T20:22:53.084Z,31.72
2019-05-14T20:25:23.363Z,31.72
2019-05-14T20:27:53.662Z,31.71
2019-05-14T20:30:24.736Z,31.71
2019-05-14T20:32:55.558Z,31.70
2019-05-14T20:35:31.564Z,31.71
2019-05-14T20:37:59.056Z,31.71
2019-05-14T20:40:30.265Z,31.70
2019-05-14T20:43:00.608Z,31.70
2019-05-14T20:45:30.998Z,31.69
2019-05-14T20:48:02.139Z,31.71
2019-05-14T20:50:32.554Z,31.72
2019-05-14T20:53:02.900Z,31.73
2019-05-14T20:55:33.204Z,31.73
2019-05-14T20:58:03.683Z,31.74
2019-05-14T21:00:41.286Z,31.74
2019-05-14T21:03:09.669Z,31.75
2019-05-14T21:05:42.424Z,31.78
2019-05-14T21:08:13.467Z,31.79
2019-05-14T21:10:44.179Z,31.79
2019-05-14T21:13:14.511Z,31.80
2019-05-14T21:15:44.876Z,31.81
2019-05-14T21:18:15.698Z,31.83
2019-05-14T21:20:48.789Z,31.85
2019-05-14T21:23:19.409Z,31.85
2019-05-14T21:25:49.680Z,31.93
2019-05-14T21:28:20.268Z,31.95
2019-05-14T21:30:50.922Z,32.00
2019-05-14T21:33:22.716Z,32.05
2019-05-14T21:35:53.980Z,32.07
2019-05-14T21:38:24.304Z,32.08
2019-05-14T21:40:54.619Z,32.09
2019-05-14T21:43:25.001Z,32.11
2019-05-14T21:45:58.505Z,32.11
2019-05-14T21:48:29.137Z,32.13
2019-05-14T21:51:00.980Z,32.15
2019-05-14T21:53:32.505Z,32.15
2019-05-14T21:56:06.128Z,32.16
2019-05-14T21:58:38.525Z,32.19
2019-05-14T22:01:10.153Z,32.18
2019-05-14T22:03:40.770Z,32.20
2019-05-14T22:06:18.146Z,32.23
2019-05-14T22:08:48.820Z,32.23
2019-05-14T22:11:19.652Z,32.24
2019-05-14T22:13:50.135Z,32.27
2019-05-14T22:16:23.190Z,32.28
2019-05-14T22:18:53.865Z,32.30
2019-05-14T22:21:24.987Z,32.30
2019-05-14T22:23:55.273Z,32.31
2019-05-14T22:26:28.768Z,32.33
2019-05-14T22:28:59.108Z,32.36
2019-05-14T22:31:31.034Z,32.35
2019-05-14T22:34:01.316Z,32.38
2019-05-14T22:36:31.606Z,32.42
2019-05-14T22:39:14.663Z,32.43
2019-05-14T22:41:47.797Z,32.43
2019-05-14T22:44:18.724Z,32.46
2019-05-14T22:46:50.998Z,32.46
2019-05-14T22:49:21.356Z,32.49
2019-05-14T22:51:52.039Z,32.51
2019-05-14T22:54:23.070Z,32.54
2019-05-14T22:56:53.444Z,32.57
2019-05-14T22:59:28.152Z,32.59
2019-05-14T23:01:58.880Z,32.59
2019-05-14T23:04:30.207Z,32.61
2019-05-14T23:07:00.499Z,32.67
2019-05-14T23:09:31.099Z,32.68
2019-05-14T23:12:01.454Z,32.72
2019-05-14T23:14:31.769Z,32.76
2019-05-14T23:17:01.881Z,32.77
2019-05-14T23:19:36.822Z,32.78
2019-05-14T23:22:07.470Z,32.78
2019-05-14T23:24:39.095Z,32.80
2019-05-14T23:27:10.598Z,32.81
2019-05-14T23:29:40.885Z,32.84
2019-05-14T23:32:12.194Z,32.86
2019-05-14T23:34:42.511Z,32.88
2019-05-14T23:37:13.151Z,32.89
2019-05-14T23:39:44.206Z,32.91
2019-05-14T23:42:14.654Z,32.95
2019-05-14T23:44:45.079Z,33.00
2019-05-14T23:47:15.373Z,33.04
2019-05-14T23:49:45.724Z,33.06
2019-05-14T23:52:16.032Z,33.07
2019-05-14T23:54:48.062Z,33.10
2019-05-14T23:57:18.859Z,33.12
2019-05-14T23:59:49.505Z,33.13
